sensor_id;sensor_type;location;lat;lon;timestamp;P1;durP1;ratioP1;P2;durP2;ratioP2
26920;SDS011;14483;47.844;9.660;2022-10-31T00:01:10;17.15;;;6.90;;
26920;SDS011;14483;47.844;9.660;2022-10-31T00:03:36;70.43;;;19.77;;
26920;SDS011;14483;47.844;9.660;2022-10-31T00:06:03;59.05;;;18.85;;
26920;SDS011;14483;47.844;9.660;2022-10-31T00:08:29;38.95;;;12.38;;
26920;SDS011;14483;47.844;9.660;2022-10-31T00:10:56;29.20;;;9.73;;
26920;SDS011;14483;47.844;9.660;2022-10-31T00:13:22;34.63;;;11.25;;
26920;SDS011;14483;47.844;9.660;2022-10-31T00:15:50;28.33;;;10.43;;
26920;SDS011;14483;47.844;9.660;2022-10-31T00:18:16;38.20;;;11.73;;
26920;SDS011;14483;47.844;9.660;2022-10-31T00:20:42;45.10;;;14.32;;
26920;SDS011;14483;47.844;9.660;2022-10-31T00:23:09;36.28;;;13.68;;
26920;SDS011;14483;47.844;9.660;2022-10-31T00:25:37;31.10;;;12.07;;
26920;SDS011;14483;47.844;9.660;2022-10-31T00:28:04;20.67;;;9.32;;
26920;SDS011;14483;47.844;9.660;2022-10-31T00:30:30;17.50;;;8.75;;
26920;SDS011;14483;47.844;9.660;2022-10-31T00:32:58;17.08;;;8.45;;
26920;SDS011;14483;47.844;9.660;2022-10-31T00:35:25;18.73;;;7.90;;
26920;SDS011;14483;47.844;9.660;2022-10-31T00:37:51;16.25;;;7.03;;
26920;SDS011;14483;47.844;9.660;2022-10-31T00:40:18;16.52;;;6.95;;
26920;SDS011;14483;47.844;9.660;2022-10-31T00:42:44;16.67;;;6.78;;
26920;SDS011;14483;47.844;9.660;2022-10-31T00:45:10;12.05;;;6.82;;
26920;SDS011;14483;47.844;9.660;2022-10-31T00:47:37;17.40;;;7.07;;
26920;SDS011;14483;47.844;9.660;2022-10-31T00:50:05;14.45;;;7.43;;
26920;SDS011;14483;47.844;9.660;2022-10-31T00:52:32;16.35;;;7.25;;
26920;SDS011;14483;47.844;9.660;2022-10-31T00:54:58;13.88;;;6.70;;
26920;SDS011;14483;47.844;9.660;2022-10-31T00:57:25;12.52;;;6.03;;
26920;SDS011;14483;47.844;9.660;2022-10-31T00:59:51;13.45;;;6.53;;
26920;SDS011;14483;47.844;9.660;2022-10-31T01:02:17;9.50;;;5.05;;
26920;SDS011;14483;47.844;9.660;2022-10-31T01:04:44;10.38;;;5.80;;
26920;SDS011;14483;47.844;9.660;2022-10-31T01:07:11;10.95;;;5.93;;
26920;SDS011;14483;47.844;9.660;2022-10-31T01:09:39;13.98;;;5.82;;
26920;SDS011;14483;47.844;9.660;2022-10-31T01:12:05;8.20;;;4.72;;
26920;SDS011;14483;47.844;9.660;2022-10-31T01:14:32;14.02;;;5.63;;
26920;SDS011;14483;47.844;9.660;2022-10-31T01:16:58;14.68;;;4.85;;
26920;SDS011;14483;47.844;9.660;2022-10-31T01:19:24;9.70;;;4.93;;
26920;SDS011;14483;47.844;9.660;2022-10-31T01:21:53;11.32;;;5.82;;
26920;SDS011;14483;47.844;9.660;2022-10-31T01:24:21;11.43;;;5.45;;
26920;SDS011;14483;47.844;9.660;2022-10-31T01:26:47;8.90;;;4.75;;
26920;SDS011;14483;47.844;9.660;2022-10-31T01:29:13;11.95;;;5.68;;
26920;SDS011;14483;47.844;9.660;2022-10-31T01:31:40;12.57;;;4.72;;
26920;SDS011;14483;47.844;9.660;2022-10-31T01:34:06;8.48;;;5.35;;
26920;SDS011;14483;47.844;9.660;2022-10-31T01:36:33;11.88;;;4.95;;
26920;SDS011;14483;47.844;9.660;2022-10-31T01:39:00;9.38;;;5.53;;
26920;SDS011;14483;47.844;9.660;2022-10-31T01:41:29;9.32;;;5.38;;
26920;SDS011;14483;47.844;9.660;2022-10-31T01:43:57;10.13;;;6.18;;
26920;SDS011;14483;47.844;9.660;2022-10-31T01:46:24;9.82;;;5.78;;
26920;SDS011;14483;47.844;9.660;2022-10-31T01:48:52;13.05;;;5.72;;
26920;SDS011;14483;47.844;9.660;2022-10-31T01:51:19;9.23;;;5.63;;
26920;SDS011;14483;47.844;9.660;2022-10-31T01:53:46;11.50;;;6.75;;
26920;SDS011;14483;47.844;9.660;2022-10-31T01:56:13;9.35;;;5.53;;
26920;SDS011;14483;47.844;9.660;2022-10-31T01:58:43;8.80;;;6.13;;
26920;SDS011;14483;47.844;9.660;2022-10-31T02:01:11;10.75;;;6.50;;
26920;SDS011;14483;47.844;9.660;2022-10-31T02:03:38;13.15;;;5.78;;
26920;SDS011;14483;47.844;9.660;2022-10-31T02:06:05;10.13;;;4.90;;
26920;SDS011;14483;47.844;9.660;2022-10-31T02:08:34;12.25;;;6.00;;
26920;SDS011;14483;47.844;9.660;2022-10-31T02:11:01;9.93;;;4.88;;
26920;SDS011;14483;47.844;9.660;2022-10-31T02:13:27;8.70;;;4.78;;
26920;SDS011;14483;47.844;9.660;2022-10-31T02:15:57;9.40;;;4.47;;
26920;SDS011;14483;47.844;9.660;2022-10-31T02:18:26;13.98;;;5.50;;
26920;SDS011;14483;47.844;9.660;2022-10-31T02:20:56;11.23;;;5.43;;
26920;SDS011;14483;47.844;9.660;2022-10-31T02:26:14;6.68;;;4.15;;
26920;SDS011;14483;47.844;9.660;2022-10-31T02:31:29;8.40;;;4.80;;
26920;SDS011;14483;47.844;9.660;2022-10-31T02:36:26;12.23;;;5.60;;
26920;SDS011;14483;47.844;9.660;2022-10-31T02:38:56;11.98;;;5.65;;
26920;SDS011;14483;47.844;9.660;2022-10-31T02:41:26;17.83;;;6.15;;
26920;SDS011;14483;47.844;9.660;2022-10-31T02:43:57;13.02;;;6.45;;
26920;SDS011;14483;47.844;9.660;2022-10-31T02:46:25;12.88;;;6.40;;
26920;SDS011;14483;47.844;9.660;2022-10-31T02:48:55;13.35;;;6.22;;
26920;SDS011;14483;47.844;9.660;2022-10-31T02:51:25;10.48;;;6.15;;
26920;SDS011;14483;47.844;9.660;2022-10-31T02:53:51;18.77;;;7.35;;
26920;SDS011;14483;47.844;9.660;2022-10-31T02:56:18;18.02;;;7.03;;
26920;SDS011;14483;47.844;9.660;2022-10-31T02:58:45;19.80;;;7.57;;
26920;SDS011;14483;47.844;9.660;2022-10-31T03:01:30;16.65;;;7.25;;
26920;SDS011;14483;47.844;9.660;2022-10-31T03:04:10;14.20;;;6.68;;
26920;SDS011;14483;47.844;9.660;2022-10-31T03:06:44;12.73;;;6.57;;
26920;SDS011;14483;47.844;9.660;2022-10-31T03:09:13;23.10;;;7.43;;
26920;SDS011;14483;47.844;9.660;2022-10-31T03:11:43;17.60;;;6.68;;
26920;SDS011;14483;47.844;9.660;2022-10-31T03:14:12;23.58;;;7.07;;
26920;SDS011;14483;47.844;9.660;2022-10-31T03:16:39;18.45;;;7.18;;
26920;SDS011;14483;47.844;9.660;2022-10-31T03:19:08;16.10;;;7.13;;
26920;SDS011;14483;47.844;9.660;2022-10-31T03:21:37;14.98;;;7.88;;
26920;SDS011;14483;47.844;9.660;2022-10-31T03:24:06;13.60;;;7.60;;
26920;SDS011;14483;47.844;9.660;2022-10-31T03:26:34;15.55;;;6.85;;
26920;SDS011;14483;47.844;9.660;2022-10-31T03:29:02;20.77;;;8.10;;
26920;SDS011;14483;47.844;9.660;2022-10-31T03:31:29;15.35;;;7.85;;
26920;SDS011;14483;47.844;9.660;2022-10-31T03:33:58;13.50;;;6.93;;
26920;SDS011;14483;47.844;9.660;2022-10-31T03:36:25;12.13;;;6.53;;
26920;SDS011;14483;47.844;9.660;2022-10-31T03:38:54;25.02;;;8.13;;
26920;SDS011;14483;47.844;9.660;2022-10-31T03:41:21;18.83;;;8.25;;
26920;SDS011;14483;47.844;9.660;2022-10-31T03:43:52;14.23;;;7.32;;
26920;SDS011;14483;47.844;9.660;2022-10-31T03:46:20;11.77;;;7.60;;
26920;SDS011;14483;47.844;9.660;2022-10-31T03:48:47;14.50;;;8.18;;
26920;SDS011;14483;47.844;9.660;2022-10-31T03:51:14;13.80;;;8.45;;
26920;SDS011;14483;47.844;9.660;2022-10-31T03:53:44;14.25;;;8.30;;
26920;SDS011;14483;47.844;9.660;2022-10-31T03:56:13;11.20;;;8.07;;
26920;SDS011;14483;47.844;9.660;2022-10-31T03:58:45;16.47;;;8.90;;
26920;SDS011;14483;47.844;9.660;2022-10-31T04:01:13;14.32;;;9.13;;
26920;SDS011;14483;47.844;9.660;2022-10-31T04:03:41;12.07;;;7.85;;
26920;SDS011;14483;47.844;9.660;2022-10-31T04:06:09;14.13;;;8.55;;
26920;SDS011;14483;47.844;9.660;2022-10-31T04:08:38;12.23;;;7.93;;
26920;SDS011;14483;47.844;9.660;2022-10-31T04:11:05;14.30;;;8.52;;
26920;SDS011;14483;47.844;9.660;2022-10-31T04:13:35;13.63;;;8.57;;
26920;SDS011;14483;47.844;9.660;2022-10-31T04:16:03;13.90;;;7.88;;
26920;SDS011;14483;47.844;9.660;2022-10-31T04:18:29;15.85;;;8.82;;
26920;SDS011;14483;47.844;9.660;2022-10-31T04:20:59;20.33;;;9.88;;
26920;SDS011;14483;47.844;9.660;2022-10-31T04:23:26;12.13;;;8.30;;
26920;SDS011;14483;47.844;9.660;2022-10-31T04:25:53;14.60;;;8.38;;
26920;SDS011;14483;47.844;9.660;2022-10-31T04:28:19;11.23;;;8.25;;
26920;SDS011;14483;47.844;9.660;2022-10-31T04:30:47;16.67;;;8.73;;
26920;SDS011;14483;47.844;9.660;2022-10-31T04:33:13;15.23;;;7.78;;
26920;SDS011;14483;47.844;9.660;2022-10-31T04:35:40;15.63;;;8.35;;
26920;SDS011;14483;47.844;9.660;2022-10-31T04:38:06;14.88;;;8.43;;
26920;SDS011;14483;47.844;9.660;2022-10-31T04:40:33;12.30;;;8.23;;
26920;SDS011;14483;47.844;9.660;2022-10-31T04:42:59;16.15;;;8.50;;
26920;SDS011;14483;47.844;9.660;2022-10-31T04:45:25;15.82;;;9.95;;
26920;SDS011;14483;47.844;9.660;2022-10-31T04:47:53;11.00;;;8.20;;
26920;SDS011;14483;47.844;9.660;2022-10-31T04:50:19;19.85;;;8.05;;
26920;SDS011;14483;47.844;9.660;2022-10-31T04:52:46;11.85;;;8.18;;
26920;SDS011;14483;47.844;9.660;2022-10-31T04:55:12;18.13;;;8.43;;
26920;SDS011;14483;47.844;9.660;2022-10-31T04:57:42;13.35;;;7.60;;
26920;SDS011;14483;47.844;9.660;2022-10-31T05:00:09;15.20;;;8.13;;
26920;SDS011;14483;47.844;9.660;2022-10-31T05:02:42;12.10;;;7.32;;
26920;SDS011;14483;47.844;9.660;2022-10-31T05:05:09;12.67;;;7.60;;
26920;SDS011;14483;47.844;9.660;2022-10-31T05:07:37;11.88;;;8.02;;
26920;SDS011;14483;47.844;9.660;2022-10-31T05:10:04;20.77;;;7.75;;
26920;SDS011;14483;47.844;9.660;2022-10-31T05:12:31;16.00;;;7.30;;
26920;SDS011;14483;47.844;9.660;2022-10-31T05:14:57;9.80;;;7.60;;
26920;SDS011;14483;47.844;9.660;2022-10-31T05:17:24;28.75;;;7.97;;
26920;SDS011;14483;47.844;9.660;2022-10-31T05:19:50;11.57;;;8.02;;
26920;SDS011;14483;47.844;9.660;2022-10-31T05:22:18;16.45;;;7.45;;
26920;SDS011;14483;47.844;9.660;2022-10-31T05:24:44;23.08;;;7.60;;
26920;SDS011;14483;47.844;9.660;2022-10-31T05:27:10;14.73;;;7.88;;
26920;SDS011;14483;47.844;9.660;2022-10-31T05:29:37;15.00;;;8.32;;
26920;SDS011;14483;47.844;9.660;2022-10-31T05:32:03;14.10;;;8.07;;
26920;SDS011;14483;47.844;9.660;2022-10-31T05:34:29;19.90;;;8.27;;
26920;SDS011;14483;47.844;9.660;2022-10-31T05:36:56;18.33;;;7.82;;
26920;SDS011;14483;47.844;9.660;2022-10-31T05:39:23;16.45;;;7.88;;
26920;SDS011;14483;47.844;9.660;2022-10-31T05:41:50;15.57;;;8.02;;
26920;SDS011;14483;47.844;9.660;2022-10-31T05:44:16;12.90;;;8.32;;
26920;SDS011;14483;47.844;9.660;2022-10-31T05:46:42;15.30;;;7.45;;
26920;SDS011;14483;47.844;9.660;2022-10-31T05:49:09;17.13;;;7.28;;
26920;SDS011;14483;47.844;9.660;2022-10-31T05:51:35;14.88;;;7.28;;
26920;SDS011;14483;47.844;9.660;2022-10-31T05:54:01;13.68;;;8.57;;
26920;SDS011;14483;47.844;9.660;2022-10-31T05:56:29;15.98;;;8.10;;
26920;SDS011;14483;47.844;9.660;2022-10-31T05:58:55;12.63;;;8.48;;
26920;SDS011;14483;47.844;9.660;2022-10-31T06:01:22;14.00;;;8.98;;
26920;SDS011;14483;47.844;9.660;2022-10-31T06:03:48;13.13;;;8.73;;
26920;SDS011;14483;47.844;9.660;2022-10-31T06:06:14;13.20;;;7.70;;
26920;SDS011;14483;47.844;9.660;2022-10-31T06:08:41;11.90;;;8.43;;
26920;SDS011;14483;47.844;9.660;2022-10-31T06:11:07;14.70;;;8.15;;
26920;SDS011;14483;47.844;9.660;2022-10-31T06:13:35;27.75;;;10.60;;
26920;SDS011;14483;47.844;9.660;2022-10-31T06:16:01;28.95;;;14.02;;
26920;SDS011;14483;47.844;9.660;2022-10-31T06:18:27;78.72;;;27.13;;
26920;SDS011;14483;47.844;9.660;2022-10-31T06:20:54;102.50;;;37.90;;
26920;SDS011;14483;47.844;9.660;2022-10-31T06:23:20;59.63;;;25.65;;
26920;SDS011;14483;47.844;9.660;2022-10-31T06:25:48;39.83;;;16.38;;
26920;SDS011;14483;47.844;9.660;2022-10-31T06:28:14;22.50;;;12.00;;
26920;SDS011;14483;47.844;9.660;2022-10-31T06:30:42;12.60;;;8.82;;
26920;SDS011;14483;47.844;9.660;2022-10-31T06:33:08;13.45;;;8.20;;
26920;SDS011;14483;47.844;9.660;2022-10-31T06:35:35;11.02;;;7.63;;
26920;SDS011;14483;47.844;9.660;2022-10-31T06:38:01;13.07;;;7.18;;
26920;SDS011;14483;47.844;9.660;2022-10-31T06:40:27;9.55;;;6.93;;
26920;SDS011;14483;47.844;9.660;2022-10-31T06:42:57;9.68;;;7.07;;
26920;SDS011;14483;47.844;9.660;2022-10-31T06:45:24;8.73;;;6.30;;
26920;SDS011;14483;47.844;9.660;2022-10-31T06:47:52;11.23;;;7.22;;
26920;SDS011;14483;47.844;9.660;2022-10-31T06:50:18;12.15;;;7.13;;
26920;SDS011;14483;47.844;9.660;2022-10-31T06:52:49;11.68;;;7.50;;
26920;SDS011;14483;47.844;9.660;2022-10-31T06:55:15;12.95;;;7.65;;
26920;SDS011;14483;47.844;9.660;2022-10-31T06:57:42;10.63;;;7.63;;
26920;SDS011;14483;47.844;9.660;2022-10-31T07:00:11;9.68;;;6.40;;
26920;SDS011;14483;47.844;9.660;2022-10-31T07:02:38;11.15;;;6.28;;
26920;SDS011;14483;47.844;9.660;2022-10-31T07:05:06;13.05;;;7.18;;
26920;SDS011;14483;47.844;9.660;2022-10-31T07:07:32;12.13;;;6.97;;
26920;SDS011;14483;47.844;9.660;2022-10-31T07:09:58;12.55;;;8.23;;
26920;SDS011;14483;47.844;9.660;2022-10-31T07:12:25;12.60;;;7.40;;
26920;SDS011;14483;47.844;9.660;2022-10-31T07:14:51;14.52;;;8.25;;
26920;SDS011;14483;47.844;9.660;2022-10-31T07:17:17;14.32;;;8.23;;
26920;SDS011;14483;47.844;9.660;2022-10-31T07:19:44;15.20;;;8.35;;
26920;SDS011;14483;47.844;9.660;2022-10-31T07:22:11;13.95;;;7.93;;
26920;SDS011;14483;47.844;9.660;2022-10-31T07:24:38;13.25;;;8.30;;
26920;SDS011;14483;47.844;9.660;2022-10-31T07:27:04;12.52;;;8.25;;
26920;SDS011;14483;47.844;9.660;2022-10-31T07:29:30;15.85;;;9.70;;
26920;SDS011;14483;47.844;9.660;2022-10-31T07:31:57;13.55;;;9.25;;
26920;SDS011;14483;47.844;9.660;2022-10-31T07:34:23;13.82;;;8.63;;
26920;SDS011;14483;47.844;9.660;2022-10-31T07:36:50;13.75;;;8.20;;
26920;SDS011;14483;47.844;9.660;2022-10-31T07:39:18;15.07;;;8.77;;
26920;SDS011;14483;47.844;9.660;2022-10-31T07:41:44;16.55;;;8.95;;
26920;SDS011;14483;47.844;9.660;2022-10-31T07:44:11;14.70;;;8.80;;
26920;SDS011;14483;47.844;9.660;2022-10-31T07:46:37;13.98;;;8.80;;
26920;SDS011;14483;47.844;9.660;2022-10-31T07:49:03;15.10;;;9.77;;
26920;SDS011;14483;47.844;9.660;2022-10-31T07:51:29;17.00;;;9.57;;
26920;SDS011;14483;47.844;9.660;2022-10-31T07:53:56;15.77;;;9.23;;
26920;SDS011;14483;47.844;9.660;2022-10-31T07:56:24;15.98;;;9.35;;
26920;SDS011;14483;47.844;9.660;2022-10-31T07:58:50;15.85;;;10.10;;
26920;SDS011;14483;47.844;9.660;2022-10-31T08:01:16;19.10;;;9.45;;
26920;SDS011;14483;47.844;9.660;2022-10-31T08:03:43;17.23;;;10.70;;
26920;SDS011;14483;47.844;9.660;2022-10-31T08:06:09;17.38;;;9.73;;
26920;SDS011;14483;47.844;9.660;2022-10-31T08:08:35;22.17;;;10.93;;
26920;SDS011;14483;47.844;9.660;2022-10-31T08:11:02;23.17;;;9.68;;
26920;SDS011;14483;47.844;9.660;2022-10-31T08:13:30;13.68;;;9.07;;
26920;SDS011;14483;47.844;9.660;2022-10-31T08:15:57;13.57;;;9.18;;
26920;SDS011;14483;47.844;9.660;2022-10-31T08:18:28;13.70;;;9.30;;
26920;SDS011;14483;47.844;9.660;2022-10-31T08:20:54;12.10;;;8.48;;
26920;SDS011;14483;47.844;9.660;2022-10-31T08:23:21;15.63;;;9.02;;
26920;SDS011;14483;47.844;9.660;2022-10-31T08:25:47;14.93;;;9.77;;
26920;SDS011;14483;47.844;9.660;2022-10-31T08:28:14;16.23;;;9.35;;
26920;SDS011;14483;47.844;9.660;2022-10-31T08:30:42;13.68;;;9.18;;
26920;SDS011;14483;47.844;9.660;2022-10-31T08:33:09;15.23;;;9.07;;
26920;SDS011;14483;47.844;9.660;2022-10-31T08:35:36;19.55;;;10.43;;
26920;SDS011;14483;47.844;9.660;2022-10-31T08:38:02;20.27;;;9.90;;
26920;SDS011;14483;47.844;9.660;2022-10-31T08:40:29;21.83;;;9.23;;
26920;SDS011;14483;47.844;9.660;2022-10-31T08:42:57;14.52;;;9.10;;
26920;SDS011;14483;47.844;9.660;2022-10-31T08:45:23;13.60;;;8.90;;
26920;SDS011;14483;47.844;9.660;2022-10-31T08:47:51;15.18;;;8.60;;
26920;SDS011;14483;47.844;9.660;2022-10-31T08:50:18;15.32;;;9.35;;
26920;SDS011;14483;47.844;9.660;2022-10-31T08:52:44;11.75;;;8.95;;
26920;SDS011;14483;47.844;9.660;2022-10-31T08:55:10;17.52;;;9.05;;
26920;SDS011;14483;47.844;9.660;2022-10-31T08:57:37;16.02;;;9.63;;
26920;SDS011;14483;47.844;9.660;2022-10-31T09:00:03;17.33;;;9.25;;
26920;SDS011;14483;47.844;9.660;2022-10-31T09:02:30;12.68;;;8.90;;
26920;SDS011;14483;47.844;9.660;2022-10-31T09:04:58;10.38;;;8.13;;
26920;SDS011;14483;47.844;9.660;2022-10-31T09:07:24;13.35;;;8.25;;
26920;SDS011;14483;47.844;9.660;2022-10-31T09:09:50;15.10;;;9.45;;
26920;SDS011;14483;47.844;9.660;2022-10-31T09:12:17;15.30;;;9.25;;
26920;SDS011;14483;47.844;9.660;2022-10-31T09:14:43;14.32;;;9.30;;
26920;SDS011;14483;47.844;9.660;2022-10-31T09:17:09;15.15;;;10.32;;
26920;SDS011;14483;47.844;9.660;2022-10-31T09:19:36;13.90;;;10.57;;
26920;SDS011;14483;47.844;9.660;2022-10-31T09:22:03;13.85;;;9.88;;
26920;SDS011;14483;47.844;9.660;2022-10-31T09:24:30;13.18;;;9.95;;
26920;SDS011;14483;47.844;9.660;2022-10-31T09:26:57;13.40;;;9.38;;
26920;SDS011;14483;47.844;9.660;2022-10-31T09:29:24;17.75;;;11.07;;
26920;SDS011;14483;47.844;9.660;2022-10-31T09:31:50;14.82;;;11.20;;
26920;SDS011;14483;47.844;9.660;2022-10-31T09:34:16;14.50;;;9.50;;
26920;SDS011;14483;47.844;9.660;2022-10-31T09:36:43;13.15;;;9.55;;
26920;SDS011;14483;47.844;9.660;2022-10-31T09:39:12;14.48;;;9.57;;
26920;SDS011;14483;47.844;9.660;2022-10-31T09:41:46;16.48;;;10.23;;
26920;SDS011;14483;47.844;9.660;2022-10-31T09:44:18;16.98;;;9.38;;
26920;SDS011;14483;47.844;9.660;2022-10-31T09:46:48;13.88;;;10.07;;
26920;SDS011;14483;47.844;9.660;2022-10-31T09:49:22;15.75;;;10.57;;
26920;SDS011;14483;47.844;9.660;2022-10-31T09:51:49;14.10;;;10.10;;
26920;SDS011;14483;47.844;9.660;2022-10-31T09:54:19;17.42;;;10.65;;
26920;SDS011;14483;47.844;9.660;2022-10-31T09:56:46;14.85;;;11.27;;
26920;SDS011;14483;47.844;9.660;2022-10-31T10:01:55;16.35;;;9.57;;
26920;SDS011;14483;47.844;9.660;2022-10-31T10:04:28;12.93;;;9.88;;
26920;SDS011;14483;47.844;9.660;2022-10-31T10:06:56;14.45;;;11.20;;
26920;SDS011;14483;47.844;9.660;2022-10-31T10:09:24;15.85;;;9.88;;
26920;SDS011;14483;47.844;9.660;2022-10-31T10:11:53;16.33;;;11.07;;
26920;SDS011;14483;47.844;9.660;2022-10-31T10:14:30;14.77;;;9.80;;
26920;SDS011;14483;47.844;9.660;2022-10-31T10:17:07;16.60;;;11.57;;
26920;SDS011;14483;47.844;9.660;2022-10-31T10:19:42;17.10;;;11.85;;
26920;SDS011;14483;47.844;9.660;2022-10-31T10:24:44;16.35;;;13.05;;
26920;SDS011;14483;47.844;9.660;2022-10-31T10:27:14;17.58;;;11.80;;
26920;SDS011;14483;47.844;9.660;2022-10-31T10:29:44;19.08;;;11.73;;
26920;SDS011;14483;47.844;9.660;2022-10-31T10:32:14;17.17;;;11.55;;
26920;SDS011;14483;47.844;9.660;2022-10-31T10:34:44;15.73;;;11.40;;
26920;SDS011;14483;47.844;9.660;2022-10-31T10:37:13;16.92;;;12.05;;
26920;SDS011;14483;47.844;9.660;2022-10-31T10:39:43;14.07;;;10.75;;
26920;SDS011;14483;47.844;9.660;2022-10-31T10:42:12;16.02;;;11.60;;
26920;SDS011;14483;47.844;9.660;2022-10-31T10:44:56;18.92;;;10.93;;
26920;SDS011;14483;47.844;9.660;2022-10-31T10:47:41;17.95;;;11.50;;
26920;SDS011;14483;47.844;9.660;2022-10-31T10:50:10;17.00;;;11.55;;
26920;SDS011;14483;47.844;9.660;2022-10-31T10:52:39;13.75;;;10.10;;
26920;SDS011;14483;47.844;9.660;2022-10-31T10:55:12;16.83;;;11.73;;
26920;SDS011;14483;47.844;9.660;2022-10-31T10:57:45;15.60;;;10.93;;
26920;SDS011;14483;47.844;9.660;2022-10-31T11:00:18;15.25;;;10.73;;
26920;SDS011;14483;47.844;9.660;2022-10-31T11:02:45;18.08;;;11.68;;
26920;SDS011;14483;47.844;9.660;2022-10-31T11:05:13;16.08;;;11.57;;
26920;SDS011;14483;47.844;9.660;2022-10-31T11:07:41;13.77;;;9.70;;
26920;SDS011;14483;47.844;9.660;2022-10-31T11:10:11;17.48;;;11.88;;
26920;SDS011;14483;47.844;9.660;2022-10-31T11:12:42;13.43;;;10.57;;
26920;SDS011;14483;47.844;9.660;2022-10-31T11:15:16;12.32;;;10.18;;
26920;SDS011;14483;47.844;9.660;2022-10-31T11:17:46;16.15;;;11.10;;
26920;SDS011;14483;47.844;9.660;2022-10-31T11:20:22;17.17;;;11.35;;
26920;SDS011;14483;47.844;9.660;2022-10-31T11:22:49;14.15;;;10.02;;
26920;SDS011;14483;47.844;9.660;2022-10-31T11:25:26;18.95;;;12.18;;
26920;SDS011;14483;47.844;9.660;2022-10-31T11:27:59;18.52;;;12.30;;
26920;SDS011;14483;47.844;9.660;2022-10-31T11:30:26;18.00;;;10.98;;
26920;SDS011;14483;47.844;9.660;2022-10-31T11:32:52;16.67;;;9.48;;
26920;SDS011;14483;47.844;9.660;2022-10-31T11:35:19;18.27;;;10.43;;
26920;SDS011;14483;47.844;9.660;2022-10-31T11:37:48;15.05;;;10.15;;
26920;SDS011;14483;47.844;9.660;2022-10-31T11:40:15;14.68;;;10.13;;
26920;SDS011;14483;47.844;9.660;2022-10-31T11:42:42;13.00;;;10.30;;
26920;SDS011;14483;47.844;9.660;2022-10-31T11:45:14;12.50;;;9.73;;
26920;SDS011;14483;47.844;9.660;2022-10-31T11:47:41;14.73;;;10.52;;
26920;SDS011;14483;47.844;9.660;2022-10-31T11:50:09;13.63;;;9.73;;
26920;SDS011;14483;47.844;9.660;2022-10-31T11:52:36;15.10;;;8.93;;
26920;SDS011;14483;47.844;9.660;2022-10-31T11:55:14;13.90;;;9.38;;
26920;SDS011;14483;47.844;9.660;2022-10-31T11:57:42;15.07;;;10.15;;
26920;SDS011;14483;47.844;9.660;2022-10-31T12:00:19;15.98;;;9.75;;
26920;SDS011;14483;47.844;9.660;2022-10-31T12:02:46;16.95;;;10.40;;
26920;SDS011;14483;47.844;9.660;2022-10-31T12:05:17;14.80;;;10.73;;
26920;SDS011;14483;47.844;9.660;2022-10-31T12:07:45;14.98;;;10.20;;
26920;SDS011;14483;47.844;9.660;2022-10-31T12:10:11;14.65;;;10.88;;
26920;SDS011;14483;47.844;9.660;2022-10-31T12:12:41;15.70;;;12.23;;
26920;SDS011;14483;47.844;9.660;2022-10-31T12:15:20;17.70;;;10.55;;
26920;SDS011;14483;47.844;9.660;2022-10-31T12:17:50;17.20;;;11.05;;
26920;SDS011;14483;47.844;9.660;2022-10-31T12:20:19;19.00;;;13.00;;
26920;SDS011;14483;47.844;9.660;2022-10-31T12:22:50;22.73;;;12.48;;
26920;SDS011;14483;47.844;9.660;2022-10-31T12:25:23;18.00;;;12.47;;
26920;SDS011;14483;47.844;9.660;2022-10-31T12:27:56;17.00;;;12.90;;
26920;SDS011;14483;47.844;9.660;2022-10-31T12:30:26;23.75;;;14.18;;
26920;SDS011;14483;47.844;9.660;2022-10-31T12:35:40;26.98;;;16.95;;
26920;SDS011;14483;47.844;9.660;2022-10-31T12:38:15;25.48;;;16.33;;
26920;SDS011;14483;47.844;9.660;2022-10-31T12:40:48;27.30;;;18.30;;
26920;SDS011;14483;47.844;9.660;2022-10-31T12:43:22;27.70;;;17.95;;
26920;SDS011;14483;47.844;9.660;2022-10-31T12:45:53;27.83;;;16.67;;
26920;SDS011;14483;47.844;9.660;2022-10-31T12:48:27;27.77;;;17.67;;
26920;SDS011;14483;47.844;9.660;2022-10-31T12:50:57;23.67;;;15.93;;
26920;SDS011;14483;47.844;9.660;2022-10-31T12:53:31;25.65;;;16.25;;
26920;SDS011;14483;47.844;9.660;2022-10-31T12:56:06;22.42;;;15.02;;
26920;SDS011;14483;47.844;9.660;2022-10-31T12:58:36;23.00;;;15.35;;
26920;SDS011;14483;47.844;9.660;2022-10-31T13:01:07;23.40;;;14.07;;
26920;SDS011;14483;47.844;9.660;2022-10-31T13:03:36;22.23;;;14.70;;
26920;SDS011;14483;47.844;9.660;2022-10-31T13:06:05;22.10;;;13.43;;
26920;SDS011;14483;47.844;9.660;2022-10-31T13:08:35;21.70;;;13.60;;
26920;SDS011;14483;47.844;9.660;2022-10-31T13:11:04;19.45;;;14.43;;
26920;SDS011;14483;47.844;9.660;2022-10-31T13:13:33;23.02;;;14.75;;
26920;SDS011;14483;47.844;9.660;2022-10-31T13:16:00;22.92;;;14.65;;
26920;SDS011;14483;47.844;9.660;2022-10-31T13:18:29;16.88;;;12.50;;
26920;SDS011;14483;47.844;9.660;2022-10-31T13:20:57;19.73;;;13.35;;
26920;SDS011;14483;47.844;9.660;2022-10-31T13:23:27;21.63;;;15.05;;
26920;SDS011;14483;47.844;9.660;2022-10-31T13:25:55;24.77;;;14.52;;
26920;SDS011;14483;47.844;9.660;2022-10-31T13:28:24;21.13;;;14.30;;
26920;SDS011;14483;47.844;9.660;2022-10-31T13:30:51;17.73;;;12.60;;
26920;SDS011;14483;47.844;9.660;2022-10-31T13:33:19;18.55;;;12.82;;
26920;SDS011;14483;47.844;9.660;2022-10-31T13:35:51;19.60;;;13.23;;
26920;SDS011;14483;47.844;9.660;2022-10-31T13:38:20;18.83;;;12.73;;
26920;SDS011;14483;47.844;9.660;2022-10-31T13:40:50;18.88;;;12.95;;
26920;SDS011;14483;47.844;9.660;2022-10-31T13:43:22;24.33;;;12.73;;
26920;SDS011;14483;47.844;9.660;2022-10-31T13:45:50;18.42;;;13.45;;
26920;SDS011;14483;47.844;9.660;2022-10-31T13:48:19;22.33;;;13.75;;
26920;SDS011;14483;47.844;9.660;2022-10-31T13:50:56;17.90;;;13.82;;
26920;SDS011;14483;47.844;9.660;2022-10-31T13:53:35;19.10;;;13.82;;
26920;SDS011;14483;47.844;9.660;2022-10-31T13:56:02;18.88;;;12.88;;
26920;SDS011;14483;47.844;9.660;2022-10-31T13:58:29;20.17;;;13.45;;
26920;SDS011;14483;47.844;9.660;2022-10-31T14:01:01;20.90;;;13.73;;
26920;SDS011;14483;47.844;9.660;2022-10-31T14:03:30;18.52;;;13.38;;
26920;SDS011;14483;47.844;9.660;2022-10-31T14:05:59;18.75;;;11.68;;
26920;SDS011;14483;47.844;9.660;2022-10-31T14:08:26;19.92;;;12.77;;
26920;SDS011;14483;47.844;9.660;2022-10-31T14:10:53;20.50;;;12.70;;
26920;SDS011;14483;47.844;9.660;2022-10-31T14:13:20;18.20;;;12.35;;
26920;SDS011;14483;47.844;9.660;2022-10-31T14:15:52;16.65;;;12.32;;
26920;SDS011;14483;47.844;9.660;2022-10-31T14:18:21;13.73;;;10.93;;
26920;SDS011;14483;47.844;9.660;2022-10-31T14:20:48;17.13;;;11.75;;
26920;SDS011;14483;47.844;9.660;2022-10-31T14:23:32;19.73;;;11.98;;
26920;SDS011;14483;47.844;9.660;2022-10-31T14:26:19;15.75;;;11.40;;
26920;SDS011;14483;47.844;9.660;2022-10-31T14:28:46;17.33;;;11.13;;
26920;SDS011;14483;47.844;9.660;2022-10-31T14:31:26;16.10;;;10.75;;
26920;SDS011;14483;47.844;9.660;2022-10-31T14:33:53;15.27;;;11.25;;
26920;SDS011;14483;47.844;9.660;2022-10-31T14:36:21;18.33;;;10.75;;
26920;SDS011;14483;47.844;9.660;2022-10-31T14:38:53;16.30;;;11.02;;
26920;SDS011;14483;47.844;9.660;2022-10-31T14:41:28;18.85;;;10.88;;
26920;SDS011;14483;47.844;9.660;2022-10-31T14:44:20;16.48;;;10.50;;
26920;SDS011;14483;47.844;9.660;2022-10-31T14:46:50;17.80;;;11.10;;
26920;SDS011;14483;47.844;9.660;2022-10-31T14:49:27;19.02;;;11.93;;
26920;SDS011;14483;47.844;9.660;2022-10-31T14:51:59;16.83;;;10.45;;
26920;SDS011;14483;47.844;9.660;2022-10-31T14:54:27;13.88;;;10.40;;